createdAt,value
2023-04-13T00:01:28.923Z,0.80
2023-04-13T00:03:58.169Z,1.03
2023-04-13T00:06:41.367Z,0.70
2023-04-13T00:09:18.765Z,0.80
2023-04-13T00:11:49.355Z,1.00
2023-04-13T00:14:18.715Z,0.90
2023-04-13T00:16:48.668Z,0.87
2023-04-13T00:19:17.797Z,0.87
2023-04-13T00:21:47.321Z,0.70
2023-04-13T00:24:15.100Z,0.90
2023-04-13T00:26:42.846Z,0.87
2023-04-13T00:29:10.480Z,0.80
2023-04-13T00:31:40.306Z,0.70
2023-04-13T00:34:09.009Z,0.83
2023-04-13T00:36:37.947Z,0.90
2023-04-13T00:39:06.947Z,0.70
2023-04-13T00:41:43.531Z,0.70
2023-04-13T00:44:15.985Z,0.90
2023-04-13T00:46:46.493Z,0.70
2023-04-13T00:49:16.134Z,1.00
2023-04-13T00:51:45.789Z,0.70
2023-04-13T00:54:18.452Z,0.90
2023-04-13T00:56:46.557Z,0.80
2023-04-13T00:59:15.286Z,0.90
2023-04-13T01:01:50.585Z,0.83
2023-04-13T01:04:27.377Z,0.80
2023-04-13T01:07:06.624Z,0.70
2023-04-13T01:09:42.817Z,0.70
2023-04-13T01:12:21.290Z,0.80
2023-04-13T01:14:58.795Z,0.97
2023-04-13T01:17:31.229Z,0.70
2023-04-13T01:20:03.185Z,0.73
2023-04-13T01:22:36.166Z,1.00
2023-04-13T01:25:27.684Z,0.93
2023-04-13T01:28:05.664Z,0.60
2023-04-13T01:30:35.816Z,0.90
2023-04-13T01:33:06.538Z,0.83
2023-04-13T01:35:48.119Z,0.93
2023-04-13T01:38:16.224Z,0.77
2023-04-13T01:40:46.096Z,0.80
2023-04-13T01:43:16.057Z,1.10
2023-04-13T01:45:52.626Z,0.80
2023-04-13T01:48:26.098Z,0.70
2023-04-13T01:50:59.337Z,1.00
2023-04-13T01:53:32.758Z,0.80
2023-04-13T01:56:01.248Z,0.90
2023-04-13T01:58:37.865Z,0.90
2023-04-13T02:01:10.021Z,0.90
2023-04-13T02:03:38.895Z,1.00
2023-04-13T02:06:07.355Z,0.93
2023-04-13T02:08:37.047Z,0.80
2023-04-13T02:11:05.237Z,0.93
2023-04-13T02:13:36.883Z,0.90
2023-04-13T02:16:11.521Z,0.90
2023-04-13T02:18:39.238Z,1.00
2023-04-13T02:21:09.607Z,0.70
2023-04-13T02:23:39.498Z,1.00
2023-04-13T02:26:08.511Z,0.90
2023-04-13T02:28:37.693Z,1.00
2023-04-13T02:31:05.969Z,1.00
2023-04-13T02:33:34.231Z,0.80
2023-04-13T02:36:03.944Z,1.30
2023-04-13T02:38:34.123Z,1.33
2023-04-13T02:41:03.459Z,0.80
2023-04-13T02:43:31.192Z,1.03
2023-04-13T02:46:00.458Z,0.80
2023-04-13T02:48:28.199Z,1.00
2023-04-13T02:50:56.274Z,0.93
2023-04-13T02:53:25.147Z,1.10
2023-04-13T02:55:53.715Z,0.90
2023-04-13T02:58:23.569Z,1.00
2023-04-13T03:00:51.376Z,1.07
2023-04-13T03:03:20.573Z,0.90
2023-04-13T03:05:53.976Z,1.10
2023-04-13T03:08:21.657Z,0.90
2023-04-13T03:10:49.980Z,1.00
2023-04-13T03:13:17.818Z,0.87
2023-04-13T03:15:46.634Z,0.90
2023-04-13T03:18:14.743Z,0.90
2023-04-13T03:20:44.182Z,1.17
2023-04-13T03:23:12.328Z,1.20
2023-04-13T03:25:40.795Z,1.30
2023-04-13T03:28:08.535Z,1.10
2023-04-13T03:30:38.852Z,1.00
2023-04-13T03:33:06.571Z,1.10
2023-04-13T03:35:34.260Z,0.90
2023-04-13T03:38:04.365Z,1.03
2023-04-13T03:40:32.095Z,0.90
2023-04-13T03:43:00.006Z,1.13
2023-04-13T03:45:29.091Z,1.10
2023-04-13T03:47:56.830Z,1.00
2023-04-13T03:50:24.610Z,0.93
2023-04-13T03:52:52.236Z,0.80
2023-04-13T03:55:21.492Z,1.37
2023-04-13T03:57:49.373Z,0.90
2023-04-13T04:00:18.236Z,1.03
2023-04-13T04:02:46.217Z,1.10
2023-04-13T04:05:14.041Z,1.00
2023-04-13T04:07:41.741Z,1.20
2023-04-13T04:10:10.550Z,1.00
2023-04-13T04:12:39.525Z,1.00
2023-04-13T04:15:08.587Z,0.90
2023-04-13T04:17:40.026Z,1.67
2023-04-13T04:20:14.612Z,1.37
2023-04-13T04:22:44.958Z,1.10
2023-04-13T04:25:12.576Z,1.10
2023-04-13T04:27:46.854Z,1.23
2023-04-13T04:30:22.191Z,0.93
2023-04-13T04:32:54.630Z,1.23
2023-04-13T04:35:28.587Z,2.20
2023-04-13T04:37:58.139Z,1.30
2023-04-13T04:40:28.865Z,1.13
2023-04-13T04:42:59.007Z,1.77
2023-04-13T04:45:28.116Z,2.03
2023-04-13T04:47:57.803Z,1.00
2023-04-13T04:50:25.932Z,1.07
2023-04-13T04:52:53.750Z,1.57
2023-04-13T04:55:21.580Z,1.10
2023-04-13T04:57:53.101Z,1.27
2023-04-13T05:00:22.573Z,1.10
2023-04-13T05:02:51.122Z,0.90
2023-04-13T05:05:19.394Z,1.07
2023-04-13T05:07:47.017Z,1.27
2023-04-13T05:10:14.726Z,1.77
2023-04-13T05:12:42.733Z,1.10
2023-04-13T05:15:11.460Z,1.20
2023-04-13T05:17:46.845Z,1.20
2023-04-13T05:20:15.104Z,1.00
2023-04-13T05:22:43.620Z,1.20
2023-04-13T05:25:11.788Z,0.80
2023-04-13T05:27:39.544Z,1.00
2023-04-13T05:30:09.532Z,1.30
2023-04-13T05:32:37.513Z,1.60
2023-04-13T05:35:10.502Z,1.17
2023-04-13T05:37:39.839Z,1.17
2023-04-13T05:40:15.087Z,1.20
2023-04-13T05:42:43.806Z,1.30
2023-04-13T05:45:13.296Z,1.37
2023-04-13T05:47:41.368Z,1.23
2023-04-13T05:50:11.524Z,1.33
2023-04-13T05:52:39.272Z,1.77
2023-04-13T05:55:07.958Z,3.20
2023-04-13T05:57:37.110Z,1.00
2023-04-13T06:00:10.590Z,1.40
2023-04-13T06:02:40.176Z,2.10
2023-04-13T06:05:11.903Z,2.00
2023-04-13T06:07:39.750Z,1.30
2023-04-13T06:10:08.976Z,1.40
2023-04-13T06:12:36.808Z,1.30
2023-04-13T06:15:05.493Z,1.80
2023-04-13T06:17:33.193Z,1.53
2023-04-13T06:20:00.927Z,1.53
2023-04-13T06:22:30.933Z,1.10
2023-04-13T06:24:58.599Z,1.40
2023-04-13T06:27:27.164Z,1.40
2023-04-13T06:29:59.640Z,1.53
2023-04-13T06:32:28.877Z,1.43
2023-04-13T06:34:56.683Z,1.93
2023-04-13T06:37:24.717Z,2.10
2023-04-13T06:39:53.879Z,1.63
2023-04-13T06:42:21.832Z,1.63
2023-04-13T06:44:49.659Z,1.43
2023-04-13T06:47:18.799Z,1.40
2023-04-13T06:49:46.665Z,1.40
2023-04-13T06:52:14.645Z,1.20
2023-04-13T06:54:42.323Z,1.80
2023-04-13T06:57:13.291Z,1.97
2023-04-13T06:59:40.884Z,1.40
2023-04-13T07:02:09.629Z,1.93
2023-04-13T07:04:40.315Z,1.50
2023-04-13T07:07:08.137Z,1.53
2023-04-13T07:09:35.882Z,1.27
2023-04-13T07:12:05.192Z,1.80
2023-04-13T07:14:36.044Z,1.40
2023-04-13T07:17:05.007Z,1.77
2023-04-13T07:19:33.749Z,1.70
2023-04-13T07:22:04.506Z,1.40
2023-04-13T07:24:35.854Z,2.07
2023-04-13T07:27:04.593Z,1.60
2023-04-13T07:29:32.387Z,1.40
2023-04-13T07:32:02.587Z,1.50
2023-04-13T07:36:58.673Z,1.73
2023-04-13T07:39:26.422Z,1.27
2023-04-13T07:41:54.029Z,2.27
2023-04-13T07:44:21.626Z,1.83
2023-04-13T07:46:49.473Z,2.13
2023-04-13T07:49:18.763Z,1.97
2023-04-13T07:51:46.454Z,1.90
2023-04-13T07:54:16.501Z,1.90
2023-04-13T07:56:44.491Z,1.40
2023-04-13T07:59:13.973Z,1.20
2023-04-13T08:01:41.985Z,2.27
2023-04-13T08:04:09.889Z,1.70
2023-04-13T08:06:39.267Z,1.30
2023-04-13T08:09:06.976Z,1.60
2023-04-13T08:11:34.600Z,1.23
2023-04-13T08:14:02.263Z,1.53
2023-04-13T08:16:33.467Z,1.60
2023-04-13T08:19:02.265Z,1.17
2023-04-13T08:21:32.831Z,1.13
2023-04-13T08:24:01.774Z,1.57
2023-04-13T08:26:29.482Z,1.60
2023-04-13T08:28:57.512Z,1.40
2023-04-13T08:31:25.436Z,1.47
2023-04-13T08:33:53.159Z,1.77
2023-04-13T08:36:21.003Z,1.13
2023-04-13T08:38:48.684Z,1.30
2023-04-13T08:41:18.616Z,1.73
2023-04-13T08:43:47.793Z,1.33
2023-04-13T08:46:19.466Z,1.60
2023-04-13T08:48:54.017Z,1.20
2023-04-13T08:51:23.810Z,1.87
2023-04-13T08:53:55.639Z,1.77
2023-04-13T08:56:37.628Z,1.40
2023-04-13T08:59:15.167Z,1.70
2023-04-13T09:01:49.740Z,1.50
2023-04-13T09:04:22.934Z,1.30
2023-04-13T09:06:54.181Z,1.50
2023-04-13T09:09:23.633Z,1.67
2023-04-13T09:11:54.607Z,1.50
2023-04-13T09:14:22.955Z,1.90
2023-04-13T09:16:50.944Z,1.77
2023-04-13T09:19:18.907Z,1.33
2023-04-13T09:21:50.697Z,1.93
2023-04-13T09:24:18.511Z,1.50
2023-04-13T09:26:48.719Z,1.53
2023-04-13T09:29:19.881Z,1.60
2023-04-13T09:31:48.446Z,2.73
2023-04-13T09:34:26.649Z,2.03
2023-04-13T09:36:56.765Z,1.63
2023-04-13T09:39:28.306Z,1.17
2023-04-13T09:41:58.036Z,1.60
2023-04-13T09:44:28.623Z,1.90
2023-04-13T09:47:02.552Z,1.77
2023-04-13T09:49:38.643Z,2.17
2023-04-13T09:52:07.425Z,1.77
2023-04-13T09:54:35.514Z,2.40
2023-04-13T09:57:05.932Z,1.73
2023-04-13T09:59:39.633Z,1.73
2023-04-13T10:02:09.499Z,1.43
2023-04-13T10:04:37.479Z,1.60
2023-04-13T10:07:10.761Z,1.77
2023-04-13T10:09:38.664Z,1.57
2023-04-13T10:12:11.435Z,1.20
2023-04-13T10:14:44.215Z,2.03
2023-04-13T10:17:37.371Z,1.70
2023-04-13T10:20:10.954Z,1.20
2023-04-13T10:22:40.155Z,1.30
2023-04-13T10:25:31.391Z,1.40
2023-04-13T10:28:01.995Z,1.77
2023-04-13T10:30:31.570Z,1.10
2023-04-13T10:33:05.576Z,1.50
2023-04-13T10:35:37.409Z,1.50
2023-04-13T10:38:06.053Z,1.10
2023-04-13T10:40:44.683Z,1.47
2023-04-13T10:43:13.376Z,1.00
2023-04-13T10:45:42.313Z,1.30
2023-04-13T10:48:21.173Z,1.40
2023-04-13T10:50:58.764Z,1.63
2023-04-13T10:53:30.284Z,1.60
2023-04-13T10:55:58.631Z,1.20
2023-04-13T10:58:32.770Z,1.20
2023-04-13T11:01:03.561Z,1.40
2023-04-13T11:03:31.341Z,1.20
2023-04-13T11:06:04.539Z,1.30
2023-04-13T11:08:32.815Z,1.30
2023-04-13T11:11:00.530Z,1.87
2023-04-13T11:13:29.490Z,1.47
2023-04-13T11:16:07.118Z,1.27
2023-04-13T11:18:36.224Z,1.47
2023-04-13T11:21:06.852Z,1.27
2023-04-13T11:23:38.291Z,1.30
2023-04-13T11:26:23.080Z,1.30
2023-04-13T11:28:51.319Z,1.20
2023-04-13T11:31:20.222Z,1.73
2023-04-13T11:33:51.416Z,1.37
2023-04-13T11:36:23.622Z,1.40
2023-04-13T11:38:53.591Z,1.40
2023-04-13T11:41:21.624Z,1.07
2023-04-13T11:43:49.407Z,1.57
2023-04-13T11:46:27.823Z,1.50
2023-04-13T11:48:56.295Z,1.27
2023-04-13T11:51:25.532Z,1.00
2023-04-13T11:53:54.933Z,1.17
2023-04-13T11:56:23.840Z,1.00
2023-04-13T11:58:55.324Z,1.50
2023-04-13T12:01:33.892Z,1.20
2023-04-13T12:04:15.004Z,1.03
2023-04-13T12:06:46.189Z,1.20
2023-04-13T12:09:17.874Z,1.27
2023-04-13T12:11:53.939Z,1.07
2023-04-13T12:14:52.130Z,1.37
2023-04-13T12:17:38.113Z,1.27
2023-04-13T12:20:10.456Z,1.10
2023-04-13T12:22:51.592Z,1.20
2023-04-13T12:25:25.876Z,1.20
2023-04-13T12:27:54.412Z,1.00
2023-04-13T12:30:23.934Z,1.20
2023-04-13T12:32:55.117Z,1.40
2023-04-13T12:35:24.292Z,1.20
2023-04-13T12:37:52.517Z,1.10
2023-04-13T12:40:21.672Z,0.93
2023-04-13T12:42:50.069Z,1.00
2023-04-13T12:45:18.103Z,1.13
2023-04-13T12:47:45.775Z,1.40
2023-04-13T12:50:15.356Z,1.17
2023-04-13T12:52:44.558Z,1.23
2023-04-13T12:55:12.366Z,1.17
2023-04-13T12:57:41.594Z,0.90
2023-04-13T13:00:12.067Z,1.10
2023-04-13T13:02:39.956Z,1.20
2023-04-13T13:05:09.489Z,1.20
2023-04-13T13:07:39.990Z,1.00
2023-04-13T13:10:25.814Z,0.80
2023-04-13T13:12:56.816Z,1.00
2023-04-13T13:15:25.777Z,0.70
2023-04-13T13:17:53.937Z,0.70
2023-04-13T13:20:21.737Z,0.70
2023-04-13T13:22:51.321Z,0.60
2023-04-13T13:25:19.343Z,0.60
2023-04-13T13:30:18.620Z,0.60
2023-04-13T13:32:46.860Z,0.60
2023-04-13T13:35:18.061Z,0.70
2023-04-13T13:37:47.723Z,0.70
2023-04-13T13:40:16.973Z,0.80
2023-04-13T13:42:52.078Z,0.87
2023-04-13T13:45:21.951Z,0.93
2023-04-13T13:47:57.386Z,0.80
2023-04-13T13:50:25.426Z,0.80
2023-04-13T13:53:02.515Z,0.97
2023-04-13T13:55:33.361Z,0.80
2023-04-13T13:58:01.375Z,0.80
2023-04-13T14:00:32.175Z,1.00
2023-04-13T14:03:01.487Z,0.90
2023-04-13T14:05:29.313Z,0.80
2023-04-13T14:07:57.226Z,0.90
2023-04-13T14:10:25.711Z,0.90
2023-04-13T14:12:55.926Z,0.73
2023-04-13T14:15:26.301Z,0.70
2023-04-13T14:18:08.999Z,0.80
2023-04-13T14:20:39.456Z,0.80
2023-04-13T14:23:09.081Z,0.83
2023-04-13T14:25:38.004Z,1.07
2023-04-13T14:28:09.452Z,1.40
2023-04-13T14:30:37.375Z,1.10
2023-04-13T14:33:09.397Z,0.70
2023-04-13T14:35:39.820Z,0.80
2023-04-13T14:38:08.336Z,1.30
2023-04-13T14:40:36.484Z,1.20
2023-04-13T14:43:06.761Z,1.10
2023-04-13T14:45:35.836Z,0.80
2023-04-13T14:48:03.622Z,1.00
2023-04-13T14:50:31.465Z,0.93
2023-04-13T14:52:59.265Z,1.03
2023-04-13T14:55:27.400Z,1.20
2023-04-13T14:57:57.479Z,0.90
2023-04-13T15:00:38.536Z,0.93
2023-04-13T15:03:25.895Z,0.90
2023-04-13T15:06:02.466Z,0.90
2023-04-13T15:08:31.776Z,1.17
2023-04-13T15:10:59.623Z,1.00
2023-04-13T15:13:27.324Z,0.93
2023-04-13T15:15:56.841Z,1.10
2023-04-13T15:18:25.987Z,1.00
2023-04-13T15:20:53.766Z,0.90
2023-04-13T15:23:21.554Z,0.80
2023-04-13T15:25:49.138Z,0.90
2023-04-13T15:28:18.514Z,0.90
2023-04-13T15:30:46.327Z,0.90
2023-04-13T15:33:15.515Z,0.80
2023-04-13T15:35:44.746Z,0.77
2023-04-13T15:38:12.761Z,0.80
2023-04-13T15:40:40.693Z,1.00
2023-04-13T15:43:08.724Z,1.00
2023-04-13T15:45:36.581Z,1.10
2023-04-13T15:48:04.967Z,1.30
2023-04-13T15:50:32.664Z,1.00
2023-04-13T15:53:01.660Z,0.80
2023-04-13T15:55:29.653Z,1.10
2023-04-13T15:57:57.463Z,1.37
2023-04-13T16:00:26.110Z,0.90
2023-04-13T16:03:03.409Z,1.37
2023-04-13T16:05:31.843Z,0.90
2023-04-13T16:08:01.032Z,0.77
2023-04-13T16:10:28.699Z,1.00
2023-04-13T16:12:56.906Z,1.00
2023-04-13T16:15:24.636Z,1.07
2023-04-13T16:17:53.421Z,1.40
2023-04-13T16:20:22.164Z,1.10
2023-04-13T16:22:54.667Z,1.23
2023-04-13T16:25:23.919Z,1.40
2023-04-13T16:27:56.134Z,1.37
2023-04-13T16:30:24.017Z,1.70
2023-04-13T16:32:51.862Z,0.90
2023-04-13T16:35:19.690Z,1.50
2023-04-13T16:37:47.474Z,0.90
2023-04-13T16:40:19.368Z,1.13
2023-04-13T16:42:49.405Z,1.07
2023-04-13T16:45:17.483Z,1.10
2023-04-13T16:47:45.451Z,0.80
2023-04-13T16:50:13.401Z,1.20
2023-04-13T16:52:41.585Z,1.00
2023-04-13T16:55:39.069Z,1.37
2023-04-13T16:58:17.312Z,1.20
2023-04-13T17:00:45.446Z,1.30
2023-04-13T17:03:15.988Z,1.10
2023-04-13T17:05:43.681Z,1.00
2023-04-13T17:08:11.408Z,1.10
2023-04-13T17:10:39.278Z,1.37
2023-04-13T17:13:06.910Z,1.10
2023-04-13T17:15:35.907Z,1.40
2023-04-13T17:18:03.639Z,1.20
2023-04-13T17:20:31.528Z,1.50
2023-04-13T17:22:59.276Z,1.63
2023-04-13T17:25:27.072Z,2.40
2023-04-13T17:27:54.856Z,1.40
2023-04-13T17:30:22.545Z,1.67
2023-04-13T17:32:51.649Z,1.30
2023-04-13T17:35:20.180Z,2.00
2023-04-13T17:37:47.830Z,1.80
2023-04-13T17:40:15.505Z,2.20
2023-04-13T17:42:43.095Z,3.27
2023-04-13T17:45:11.613Z,3.20
2023-04-13T17:47:39.229Z,3.50
2023-04-13T17:50:09.487Z,2.63
2023-04-13T17:52:37.421Z,3.67
2023-04-13T17:55:06.005Z,2.30
2023-04-13T17:57:33.904Z,1.77
2023-04-13T18:00:01.975Z,1.73
2023-04-13T18:02:29.774Z,1.40
2023-04-13T18:04:57.568Z,1.60
2023-04-13T18:07:26.755Z,0.90
2023-04-13T18:09:54.484Z,1.50
2023-04-13T18:12:22.256Z,1.40
2023-04-13T18:14:49.847Z,1.23
2023-04-13T18:17:17.517Z,1.27
2023-04-13T18:19:49.004Z,1.33
2023-04-13T18:22:17.340Z,1.30
2023-04-13T18:24:46.530Z,1.13
2023-04-13T18:27:14.372Z,1.37
2023-04-13T18:29:44.743Z,1.47
2023-04-13T18:32:12.465Z,1.40
2023-04-13T18:34:42.369Z,1.17
2023-04-13T18:37:11.343Z,1.03
2023-04-13T18:39:39.495Z,1.30
2023-04-13T18:42:08.735Z,1.03
2023-04-13T18:44:36.570Z,1.20
2023-04-13T18:47:04.352Z,1.00
2023-04-13T18:49:32.380Z,1.20
2023-04-13T18:52:00.309Z,1.30
2023-04-13T18:54:29.508Z,2.07
2023-04-13T18:56:58.176Z,0.90
2023-04-13T18:59:28.924Z,1.37
2023-04-13T19:01:56.740Z,2.00
2023-04-13T19:04:24.592Z,2.13
2023-04-13T19:06:52.394Z,1.80
2023-04-13T19:09:20.081Z,1.60
2023-04-13T19:11:51.597Z,2.33
2023-04-13T19:14:19.152Z,2.20
2023-04-13T19:16:52.751Z,1.87
2023-04-13T19:19:20.458Z,2.33
2023-04-13T19:21:48.105Z,1.87
2023-04-13T19:24:16.215Z,1.70
2023-04-13T19:26:44.187Z,2.50
2023-04-13T19:29:13.155Z,1.50
2023-04-13T19:31:58.823Z,1.60
2023-04-13T19:34:31.509Z,1.73
2023-04-13T19:36:59.465Z,2.27
2023-04-13T19:39:27.432Z,1.87
2023-04-13T19:41:55.613Z,2.17
2023-04-13T19:44:23.252Z,3.23
2023-04-13T19:46:52.268Z,2.57
2023-04-13T19:49:20.553Z,4.63
2023-04-13T19:51:51.163Z,3.67
2023-04-13T19:54:18.679Z,16.37
2023-04-13T19:56:47.460Z,9.47
2023-04-13T19:59:15.193Z,21.30
2023-04-13T20:01:45.756Z,15.33
2023-04-13T20:04:18.009Z,6.73
2023-04-13T20:06:46.087Z,4.23
2023-04-13T20:09:15.218Z,2.83
2023-04-13T20:11:42.887Z,7.83
2023-04-13T20:14:11.716Z,10.40
2023-04-13T20:16:39.688Z,5.60
2023-04-13T20:19:09.608Z,5.60
2023-04-13T20:21:42.227Z,7.17
2023-04-13T20:24:10.146Z,6.60
2023-04-13T20:26:38.882Z,6.40
2023-04-13T20:29:07.229Z,5.17
2023-04-13T20:31:35.928Z,3.73
2023-04-13T20:34:04.250Z,5.10
2023-04-13T20:36:32.375Z,3.40
2023-04-13T20:39:01.523Z,4.10
2023-04-13T20:41:32.467Z,3.93
2023-04-13T20:44:01.122Z,3.53
2023-04-13T20:46:34.235Z,4.07
2023-04-13T20:49:04.277Z,4.07
2023-04-13T20:51:32.956Z,4.00
2023-04-13T20:54:05.303Z,5.10
2023-04-13T20:56:39.787Z,11.17
2023-04-13T20:59:07.922Z,6.70
2023-04-13T21:01:36.042Z,9.17
2023-04-13T21:04:04.146Z,8.90
2023-04-13T21:06:33.699Z,8.10
2023-04-13T21:09:05.027Z,11.47
2023-04-13T21:11:32.916Z,8.33
2023-04-13T21:14:00.758Z,14.77
2023-04-13T21:16:31.665Z,12.83
2023-04-13T21:18:59.380Z,8.50
2023-04-13T21:21:28.215Z,25.90
2023-04-13T21:23:56.154Z,15.00
2023-04-13T21:26:25.102Z,18.70
2023-04-13T21:28:52.865Z,10.87
2023-04-13T21:31:20.860Z,10.33
2023-04-13T21:33:49.175Z,5.13
2023-04-13T21:38:47.423Z,5.30
2023-04-13T21:41:16.182Z,3.47
2023-04-13T21:43:46.083Z,3.70
2023-04-13T21:46:16.796Z,5.17
2023-04-13T21:48:44.956Z,4.60
2023-04-13T21:51:12.668Z,4.80
2023-04-13T21:53:41.517Z,3.80
2023-04-13T21:56:09.271Z,4.30
2023-04-13T21:58:42.132Z,4.43
2023-04-13T22:01:12.857Z,3.90
2023-04-13T22:03:43.211Z,4.33
2023-04-13T22:06:12.390Z,3.87
2023-04-13T22:08:40.547Z,3.87
2023-04-13T22:11:08.335Z,3.90
2023-04-13T22:13:37.247Z,3.80
2023-04-13T22:16:05.046Z,3.50
2023-04-13T22:18:36.363Z,4.40
2023-04-13T22:21:04.505Z,3.80
2023-04-13T22:23:32.127Z,3.67
2023-04-13T22:26:01.444Z,3.60
2023-04-13T22:28:32.106Z,4.17
2023-04-13T22:31:07.377Z,4.00
2023-04-13T22:33:37.826Z,4.30
2023-04-13T22:36:07.089Z,4.23
2023-04-13T22:38:34.705Z,4.23
2023-04-13T22:41:07.688Z,4.47
2023-04-13T22:43:35.522Z,4.60
2023-04-13T22:46:03.459Z,4.40
2023-04-13T22:48:31.275Z,4.23
2023-04-13T22:51:01.073Z,4.30
2023-04-13T22:53:29.147Z,4.27
2023-04-13T22:55:57.974Z,5.00
2023-04-13T22:58:25.697Z,4.33
2023-04-13T23:00:53.257Z,4.57
2023-04-13T23:03:21.245Z,4.70
2023-04-13T23:05:49.213Z,5.10
2023-04-13T23:08:18.219Z,4.53
2023-04-13T23:10:45.829Z,4.90
2023-04-13T23:13:13.559Z,5.17
2023-04-13T23:15:41.209Z,5.10
2023-04-13T23:18:08.979Z,4.97
2023-04-13T23:20:36.708Z,5.77
2023-04-13T23:23:04.352Z,4.83
2023-04-13T23:25:33.303Z,5.10
2023-04-13T23:28:01.093Z,5.00
2023-04-13T23:30:28.688Z,5.07
2023-04-13T23:32:56.482Z,5.10
2023-04-13T23:35:24.145Z,5.90
2023-04-13T23:37:51.847Z,4.50
2023-04-13T23:40:19.498Z,4.70
2023-04-13T23:42:48.555Z,5.00
2023-04-13T23:45:16.445Z,4.90
2023-04-13T23:47:44.223Z,5.07
2023-04-13T23:50:12.282Z,4.90
2023-04-13T23:52:39.886Z,5.20
2023-04-13T23:55:08.202Z,5.33
2023-04-13T23:57:36.364Z,5.70
